sensor_id;sensor_type;location;lat;lon;timestamp;temperature;humidity
73137;DHT22;62977;45.636;11.750;2023-02-05T00:01:35;7.70;79.60
73137;DHT22;62977;45.636;11.750;2023-02-05T00:04:01;7.60;79.70
73137;DHT22;62977;45.636;11.750;2023-02-05T00:06:26;7.70;79.50
73137;DHT22;62977;45.636;11.750;2023-02-05T00:08:52;7.50;79.60
73137;DHT22;62977;45.636;11.750;2023-02-05T00:11:18;7.60;79.50
73137;DHT22;62977;45.636;11.750;2023-02-05T00:13:43;7.60;79.70
73137;DHT22;62977;45.636;11.750;2023-02-05T00:16:15;7.70;79.60
73137;DHT22;62977;45.636;11.750;2023-02-05T00:18:41;7.50;79.70
73137;DHT22;62977;45.636;11.750;2023-02-05T00:21:07;7.60;79.60
73137;DHT22;62977;45.636;11.750;2023-02-05T00:23:34;7.70;79.60
73137;DHT22;62977;45.636;11.750;2023-02-05T00:26:00;7.60;79.70
73137;DHT22;62977;45.636;11.750;2023-02-05T00:28:26;7.60;79.40
73137;DHT22;62977;45.636;11.750;2023-02-05T00:30:52;7.60;79.20
73137;DHT22;62977;45.636;11.750;2023-02-05T00:33:17;7.70;79.00
73137;DHT22;62977;45.636;11.750;2023-02-05T00:35:43;7.60;78.90
73137;DHT22;62977;45.636;11.750;2023-02-05T00:38:11;7.70;79.00
73137;DHT22;62977;45.636;11.750;2023-02-05T00:40:36;7.60;79.00
73137;DHT22;62977;45.636;11.750;2023-02-05T00:43:02;7.60;79.10
73137;DHT22;62977;45.636;11.750;2023-02-05T00:45:27;7.50;79.30
73137;DHT22;62977;45.636;11.750;2023-02-05T00:48:00;7.70;78.90
73137;DHT22;62977;45.636;11.750;2023-02-05T00:50:25;7.60;78.60
73137;DHT22;62977;45.636;11.750;2023-02-05T00:52:51;7.70;78.60
73137;DHT22;62977;45.636;11.750;2023-02-05T00:55:17;7.70;78.60
73137;DHT22;62977;45.636;11.750;2023-02-05T00:57:42;7.80;78.80
73137;DHT22;62977;45.636;11.750;2023-02-05T01:00:09;7.80;78.10
73137;DHT22;62977;45.636;11.750;2023-02-05T01:02:34;7.90;78.00
73137;DHT22;62977;45.636;11.750;2023-02-05T01:05:00;7.90;77.60
73137;DHT22;62977;45.636;11.750;2023-02-05T01:07:26;7.90;77.60
73137;DHT22;62977;45.636;11.750;2023-02-05T01:09:51;7.80;77.90
73137;DHT22;62977;45.636;11.750;2023-02-05T01:12:17;7.80;77.50
73137;DHT22;62977;45.636;11.750;2023-02-05T01:14:43;7.90;78.00
73137;DHT22;62977;45.636;11.750;2023-02-05T01:17:08;7.90;76.20
73137;DHT22;62977;45.636;11.750;2023-02-05T01:19:35;8.00;74.60
73137;DHT22;62977;45.636;11.750;2023-02-05T01:22:01;8.20;74.70
73137;DHT22;62977;45.636;11.750;2023-02-05T01:24:26;8.20;73.80
73137;DHT22;62977;45.636;11.750;2023-02-05T01:26:52;8.10;75.30
73137;DHT22;62977;45.636;11.750;2023-02-05T01:29:21;8.00;75.20
73137;DHT22;62977;45.636;11.750;2023-02-05T01:31:47;8.10;74.50
73137;DHT22;62977;45.636;11.750;2023-02-05T01:34:13;8.00;73.50
73137;DHT22;62977;45.636;11.750;2023-02-05T01:36:38;8.10;73.70
73137;DHT22;62977;45.636;11.750;2023-02-05T01:39:04;8.20;74.00
73137;DHT22;62977;45.636;11.750;2023-02-05T01:41:30;8.30;73.60
73137;DHT22;62977;45.636;11.750;2023-02-05T01:46:34;8.20;73.20
73137;DHT22;62977;45.636;11.750;2023-02-05T01:49:01;8.30;73.00
73137;DHT22;62977;45.636;11.750;2023-02-05T01:51:29;8.30;72.50
73137;DHT22;62977;45.636;11.750;2023-02-05T01:53:55;8.20;72.90
73137;DHT22;62977;45.636;11.750;2023-02-05T01:56:27;8.20;73.20
73137;DHT22;62977;45.636;11.750;2023-02-05T01:59:05;8.10;72.80
73137;DHT22;62977;45.636;11.750;2023-02-05T02:01:31;8.10;72.50
73137;DHT22;62977;45.636;11.750;2023-02-05T02:04:00;8.20;72.90
73137;DHT22;62977;45.636;11.750;2023-02-05T02:06:30;8.20;72.60
73137;DHT22;62977;45.636;11.750;2023-02-05T02:08:56;8.20;73.00
73137;DHT22;62977;45.636;11.750;2023-02-05T02:11:23;8.10;72.30
73137;DHT22;62977;45.636;11.750;2023-02-05T02:13:52;8.00;72.50
73137;DHT22;62977;45.636;11.750;2023-02-05T02:16:19;8.20;72.50
73137;DHT22;62977;45.636;11.750;2023-02-05T02:18:45;8.20;72.20
73137;DHT22;62977;45.636;11.750;2023-02-05T02:29:05;8.30;72.20
73137;DHT22;62977;45.636;11.750;2023-02-05T02:31:38;8.40;72.20
73137;DHT22;62977;45.636;11.750;2023-02-05T02:34:18;8.30;72.10
73137;DHT22;62977;45.636;11.750;2023-02-05T02:37:00;8.30;72.40
73137;DHT22;62977;45.636;11.750;2023-02-05T02:39:47;8.40;72.50
73137;DHT22;62977;45.636;11.750;2023-02-05T02:42:22;8.40;72.90
73137;DHT22;62977;45.636;11.750;2023-02-05T02:45:05;8.20;72.00
73137;DHT22;62977;45.636;11.750;2023-02-05T02:47:36;8.20;72.50
73137;DHT22;62977;45.636;11.750;2023-02-05T02:50:35;8.20;72.30
73137;DHT22;62977;45.636;11.750;2023-02-05T02:53:11;8.30;72.10
73137;DHT22;62977;45.636;11.750;2023-02-05T02:55:41;8.30;71.70
73137;DHT22;62977;45.636;11.750;2023-02-05T02:58:14;8.20;72.00
73137;DHT22;62977;45.636;11.750;2023-02-05T03:00:43;8.20;71.90
73137;DHT22;62977;45.636;11.750;2023-02-05T03:03:10;8.10;71.90
73137;DHT22;62977;45.636;11.750;2023-02-05T03:05:39;8.30;72.50
73137;DHT22;62977;45.636;11.750;2023-02-05T03:08:15;8.30;72.80
73137;DHT22;62977;45.636;11.750;2023-02-05T03:10:57;8.00;73.20
73137;DHT22;62977;45.636;11.750;2023-02-05T03:13:25;8.00;72.70
73137;DHT22;62977;45.636;11.750;2023-02-05T03:15:51;8.10;72.90
73137;DHT22;62977;45.636;11.750;2023-02-05T03:18:18;8.10;73.40
73137;DHT22;62977;45.636;11.750;2023-02-05T03:20:54;8.10;73.90
73137;DHT22;62977;45.636;11.750;2023-02-05T03:23:20;8.00;74.10
73137;DHT22;62977;45.636;11.750;2023-02-05T03:25:45;8.00;74.20
73137;DHT22;62977;45.636;11.750;2023-02-05T03:28:12;8.00;74.00
73137;DHT22;62977;45.636;11.750;2023-02-05T03:30:50;7.80;74.00
73137;DHT22;62977;45.636;11.750;2023-02-05T03:33:43;7.70;74.20
73137;DHT22;62977;45.636;11.750;2023-02-05T03:52:50;7.70;74.40
73137;DHT22;62977;45.636;11.750;2023-02-05T03:55:32;7.80;74.20
73137;DHT22;62977;45.636;11.750;2023-02-05T03:58:09;7.80;73.70
73137;DHT22;62977;45.636;11.750;2023-02-05T04:00:36;7.70;73.50
73137;DHT22;62977;45.636;11.750;2023-02-05T04:03:04;7.70;73.00
73137;DHT22;62977;45.636;11.750;2023-02-05T04:05:30;7.60;73.20
73137;DHT22;62977;45.636;11.750;2023-02-05T04:07:55;7.70;73.60
73137;DHT22;62977;45.636;11.750;2023-02-05T04:10:21;7.70;74.00
73137;DHT22;62977;45.636;11.750;2023-02-05T04:12:47;7.60;74.30
73137;DHT22;62977;45.636;11.750;2023-02-05T04:15:12;7.60;74.60
73137;DHT22;62977;45.636;11.750;2023-02-05T04:17:38;7.60;74.20
73137;DHT22;62977;45.636;11.750;2023-02-05T04:20:05;7.60;74.30
73137;DHT22;62977;45.636;11.750;2023-02-05T04:22:32;7.50;74.40
73137;DHT22;62977;45.636;11.750;2023-02-05T04:24:59;7.40;74.30
73137;DHT22;62977;45.636;11.750;2023-02-05T04:27:24;7.40;75.00
73137;DHT22;62977;45.636;11.750;2023-02-05T04:29:50;7.40;74.90
73137;DHT22;62977;45.636;11.750;2023-02-05T04:32:16;7.30;75.20
73137;DHT22;62977;45.636;11.750;2023-02-05T04:34:41;7.20;75.00
73137;DHT22;62977;45.636;11.750;2023-02-05T04:37:07;7.20;75.00
73137;DHT22;62977;45.636;11.750;2023-02-05T04:39:32;7.30;74.90
73137;DHT22;62977;45.636;11.750;2023-02-05T04:41:58;7.20;74.90
73137;DHT22;62977;45.636;11.750;2023-02-05T04:44:26;7.20;75.00
73137;DHT22;62977;45.636;11.750;2023-02-05T04:46:52;7.10;74.90
73137;DHT22;62977;45.636;11.750;2023-02-05T04:49:17;7.20;75.40
73137;DHT22;62977;45.636;11.750;2023-02-05T04:51:43;7.10;75.20
73137;DHT22;62977;45.636;11.750;2023-02-05T04:54:08;6.90;75.10
73137;DHT22;62977;45.636;11.750;2023-02-05T04:56:34;7.10;74.60
73137;DHT22;62977;45.636;11.750;2023-02-05T04:59:00;7.10;74.50
73137;DHT22;62977;45.636;11.750;2023-02-05T05:01:25;7.10;74.90
73137;DHT22;62977;45.636;11.750;2023-02-05T05:03:51;7.00;75.00
73137;DHT22;62977;45.636;11.750;2023-02-05T05:06:17;7.10;75.20
73137;DHT22;62977;45.636;11.750;2023-02-05T05:08:43;7.10;74.80
73137;DHT22;62977;45.636;11.750;2023-02-05T05:11:13;7.00;75.40
73137;DHT22;62977;45.636;11.750;2023-02-05T05:13:39;6.80;75.70
73137;DHT22;62977;45.636;11.750;2023-02-05T05:16:05;6.90;75.90
73137;DHT22;62977;45.636;11.750;2023-02-05T05:18:32;6.90;76.00
73137;DHT22;62977;45.636;11.750;2023-02-05T05:20:59;6.80;75.80
73137;DHT22;62977;45.636;11.750;2023-02-05T05:23:25;6.90;75.70
73137;DHT22;62977;45.636;11.750;2023-02-05T05:25:50;6.80;76.00
73137;DHT22;62977;45.636;11.750;2023-02-05T05:28:16;6.70;75.90
73137;DHT22;62977;45.636;11.750;2023-02-05T05:30:43;7.00;75.90
73137;DHT22;62977;45.636;11.750;2023-02-05T05:33:09;6.90;75.40
73137;DHT22;62977;45.636;11.750;2023-02-05T05:35:36;7.00;75.70
73137;DHT22;62977;45.636;11.750;2023-02-05T05:38:02;7.00;75.60
73137;DHT22;62977;45.636;11.750;2023-02-05T05:40:29;6.90;75.40
73137;DHT22;62977;45.636;11.750;2023-02-05T05:43:16;7.00;75.60
73137;DHT22;62977;45.636;11.750;2023-02-05T05:46:01;7.00;75.50
73137;DHT22;62977;45.636;11.750;2023-02-05T05:48:27;7.00;75.60
73137;DHT22;62977;45.636;11.750;2023-02-05T05:50:53;6.90;75.60
73137;DHT22;62977;45.636;11.750;2023-02-05T05:53:19;7.00;75.70
73137;DHT22;62977;45.636;11.750;2023-02-05T05:55:45;7.00;75.70
73137;DHT22;62977;45.636;11.750;2023-02-05T05:58:11;6.90;75.50
73137;DHT22;62977;45.636;11.750;2023-02-05T06:00:38;6.90;75.30
73137;DHT22;62977;45.636;11.750;2023-02-05T06:03:05;7.00;75.60
73137;DHT22;62977;45.636;11.750;2023-02-05T06:05:32;7.00;75.80
73137;DHT22;62977;45.636;11.750;2023-02-05T06:07:58;7.00;75.70
73137;DHT22;62977;45.636;11.750;2023-02-05T06:10:24;7.00;75.70
73137;DHT22;62977;45.636;11.750;2023-02-05T06:12:49;6.90;75.60
73137;DHT22;62977;45.636;11.750;2023-02-05T06:15:18;7.00;75.50
73137;DHT22;62977;45.636;11.750;2023-02-05T06:17:43;6.80;75.80
73137;DHT22;62977;45.636;11.750;2023-02-05T06:20:10;6.80;75.80
73137;DHT22;62977;45.636;11.750;2023-02-05T06:22:37;6.70;75.70
73137;DHT22;62977;45.636;11.750;2023-02-05T06:25:03;6.70;75.60
73137;DHT22;62977;45.636;11.750;2023-02-05T06:27:29;6.80;75.80
73137;DHT22;62977;45.636;11.750;2023-02-05T06:29:55;6.80;75.70
73137;DHT22;62977;45.636;11.750;2023-02-05T06:32:20;6.90;76.00
73137;DHT22;62977;45.636;11.750;2023-02-05T06:34:46;6.80;76.10
73137;DHT22;62977;45.636;11.750;2023-02-05T06:37:12;6.80;76.30
73137;DHT22;62977;45.636;11.750;2023-02-05T06:39:38;6.70;76.40
73137;DHT22;62977;45.636;11.750;2023-02-05T06:42:04;6.70;76.50
73137;DHT22;62977;45.636;11.750;2023-02-05T06:44:29;6.90;76.20
73137;DHT22;62977;45.636;11.750;2023-02-05T06:46:55;6.90;76.20
73137;DHT22;62977;45.636;11.750;2023-02-05T06:49:21;6.80;76.10
73137;DHT22;62977;45.636;11.750;2023-02-05T06:51:46;6.90;76.10
73137;DHT22;62977;45.636;11.750;2023-02-05T06:54:12;6.90;76.20
73137;DHT22;62977;45.636;11.750;2023-02-05T06:56:38;6.90;76.10
73137;DHT22;62977;45.636;11.750;2023-02-05T06:59:03;6.80;76.00
73137;DHT22;62977;45.636;11.750;2023-02-05T07:01:29;6.70;76.20
73137;DHT22;62977;45.636;11.750;2023-02-05T07:03:55;7.00;76.50
73137;DHT22;62977;45.636;11.750;2023-02-05T07:06:24;6.90;76.40
73137;DHT22;62977;45.636;11.750;2023-02-05T07:08:51;7.00;76.30
73137;DHT22;62977;45.636;11.750;2023-02-05T07:11:18;7.10;76.50
73137;DHT22;62977;45.636;11.750;2023-02-05T07:13:44;7.00;76.70
73137;DHT22;62977;45.636;11.750;2023-02-05T07:16:10;7.10;76.50
73137;DHT22;62977;45.636;11.750;2023-02-05T07:18:36;7.10;76.40
73137;DHT22;62977;45.636;11.750;2023-02-05T07:21:07;7.20;76.50
73137;DHT22;62977;45.636;11.750;2023-02-05T07:23:34;7.20;76.60
73137;DHT22;62977;45.636;11.750;2023-02-05T07:26:13;7.30;76.40
73137;DHT22;62977;45.636;11.750;2023-02-05T07:28:40;7.20;76.60
73137;DHT22;62977;45.636;11.750;2023-02-05T07:31:08;7.30;76.40
73137;DHT22;62977;45.636;11.750;2023-02-05T07:33:34;7.30;76.50
73137;DHT22;62977;45.636;11.750;2023-02-05T07:36:05;7.30;76.20
73137;DHT22;62977;45.636;11.750;2023-02-05T07:38:32;7.40;76.40
73137;DHT22;62977;45.636;11.750;2023-02-05T07:40:58;7.40;76.40
73137;DHT22;62977;45.636;11.750;2023-02-05T07:43:24;7.50;76.50
73137;DHT22;62977;45.636;11.750;2023-02-05T07:45:57;7.50;76.10
73137;DHT22;62977;45.636;11.750;2023-02-05T07:48:23;7.60;76.00
73137;DHT22;62977;45.636;11.750;2023-02-05T07:50:48;7.60;76.30
73137;DHT22;62977;45.636;11.750;2023-02-05T07:53:14;7.60;76.30
73137;DHT22;62977;45.636;11.750;2023-02-05T07:55:39;7.60;75.90
73137;DHT22;62977;45.636;11.750;2023-02-05T07:58:05;7.70;75.70
73137;DHT22;62977;45.636;11.750;2023-02-05T08:00:31;7.60;75.80
73137;DHT22;62977;45.636;11.750;2023-02-05T08:02:57;7.70;75.80
73137;DHT22;62977;45.636;11.750;2023-02-05T08:05:22;7.80;75.60
73137;DHT22;62977;45.636;11.750;2023-02-05T08:07:48;7.70;75.20
73137;DHT22;62977;45.636;11.750;2023-02-05T08:10:14;7.70;75.00
73137;DHT22;62977;45.636;11.750;2023-02-05T08:12:40;7.90;74.90
73137;DHT22;62977;45.636;11.750;2023-02-05T08:15:06;7.80;74.70
73137;DHT22;62977;45.636;11.750;2023-02-05T08:17:32;7.80;74.90
73137;DHT22;62977;45.636;11.750;2023-02-05T08:19:57;7.80;75.40
73137;DHT22;62977;45.636;11.750;2023-02-05T08:22:27;7.90;75.80
73137;DHT22;62977;45.636;11.750;2023-02-05T08:24:53;7.70;75.80
73137;DHT22;62977;45.636;11.750;2023-02-05T08:27:19;7.90;75.40
73137;DHT22;62977;45.636;11.750;2023-02-05T08:29:46;8.00;75.20
73137;DHT22;62977;45.636;11.750;2023-02-05T08:32:12;8.00;74.40
73137;DHT22;62977;45.636;11.750;2023-02-05T08:34:38;8.20;74.50
73137;DHT22;62977;45.636;11.750;2023-02-05T08:37:04;8.10;74.50
73137;DHT22;62977;45.636;11.750;2023-02-05T08:39:29;8.20;74.40
73137;DHT22;62977;45.636;11.750;2023-02-05T08:41:55;8.30;74.30
73137;DHT22;62977;45.636;11.750;2023-02-05T08:44:21;8.30;74.20
73137;DHT22;62977;45.636;11.750;2023-02-05T08:46:46;8.30;74.20
73137;DHT22;62977;45.636;11.750;2023-02-05T08:49:12;8.40;74.00
73137;DHT22;62977;45.636;11.750;2023-02-05T08:51:38;8.40;74.00
73137;DHT22;62977;45.636;11.750;2023-02-05T08:54:03;8.40;74.30
73137;DHT22;62977;45.636;11.750;2023-02-05T08:56:33;8.30;74.40
73137;DHT22;62977;45.636;11.750;2023-02-05T08:58:59;8.40;74.40
73137;DHT22;62977;45.636;11.750;2023-02-05T09:01:24;8.30;74.70
73137;DHT22;62977;45.636;11.750;2023-02-05T09:03:50;8.30;74.40
73137;DHT22;62977;45.636;11.750;2023-02-05T09:06:16;8.30;74.50
73137;DHT22;62977;45.636;11.750;2023-02-05T09:08:42;8.20;74.40
73137;DHT22;62977;45.636;11.750;2023-02-05T09:11:07;8.20;74.20
73137;DHT22;62977;45.636;11.750;2023-02-05T09:13:33;8.20;74.50
73137;DHT22;62977;45.636;11.750;2023-02-05T09:15:59;8.10;74.80
73137;DHT22;62977;45.636;11.750;2023-02-05T09:18:25;7.90;74.90
73137;DHT22;62977;45.636;11.750;2023-02-05T09:20:51;7.90;75.20
73137;DHT22;62977;45.636;11.750;2023-02-05T09:23:20;7.80;75.30
73137;DHT22;62977;45.636;11.750;2023-02-05T09:25:45;7.70;75.30
73137;DHT22;62977;45.636;11.750;2023-02-05T09:28:12;7.80;75.50
73137;DHT22;62977;45.636;11.750;2023-02-05T09:30:40;7.70;75.60
73137;DHT22;62977;45.636;11.750;2023-02-05T09:33:06;7.80;75.60
73137;DHT22;62977;45.636;11.750;2023-02-05T09:35:32;7.70;75.70
73137;DHT22;62977;45.636;11.750;2023-02-05T09:37:58;7.50;75.70
73137;DHT22;62977;45.636;11.750;2023-02-05T09:40:28;7.50;75.60
73137;DHT22;62977;45.636;11.750;2023-02-05T09:43:19;7.60;75.50
73137;DHT22;62977;45.636;11.750;2023-02-05T09:46:13;7.60;75.50
73137;DHT22;62977;45.636;11.750;2023-02-05T09:51:37;7.60;75.00
73137;DHT22;62977;45.636;11.750;2023-02-05T09:56:43;7.80;74.60
73137;DHT22;62977;45.636;11.750;2023-02-05T09:59:18;7.80;74.80
73137;DHT22;62977;45.636;11.750;2023-02-05T10:01:50;7.80;74.30
73137;DHT22;62977;45.636;11.750;2023-02-05T10:04:16;7.90;74.40
73137;DHT22;62977;45.636;11.750;2023-02-05T10:07:04;7.90;73.70
73137;DHT22;62977;45.636;11.750;2023-02-05T10:20:44;8.40;72.00
73137;DHT22;62977;45.636;11.750;2023-02-05T10:23:42;8.50;71.80
73137;DHT22;62977;45.636;11.750;2023-02-05T10:26:14;8.50;71.20
73137;DHT22;62977;45.636;11.750;2023-02-05T10:32:14;8.30;71.60
73137;DHT22;62977;45.636;11.750;2023-02-05T10:37:24;8.20;71.40
73137;DHT22;62977;45.636;11.750;2023-02-05T10:39:55;8.20;71.60
73137;DHT22;62977;45.636;11.750;2023-02-05T10:42:32;8.30;71.60
73137;DHT22;62977;45.636;11.750;2023-02-05T11:09:55;8.50;63.00
73137;DHT22;62977;45.636;11.750;2023-02-05T11:12:28;8.40;62.40
73137;DHT22;62977;45.636;11.750;2023-02-05T11:14:56;8.40;61.90
73137;DHT22;62977;45.636;11.750;2023-02-05T11:17:30;8.20;62.20
73137;DHT22;62977;45.636;11.750;2023-02-05T11:22:30;8.30;61.40
73137;DHT22;62977;45.636;11.750;2023-02-05T11:27:51;8.40;60.80
73137;DHT22;62977;45.636;11.750;2023-02-05T11:37:02;8.20;60.60
73137;DHT22;62977;45.636;11.750;2023-02-05T11:39:37;8.30;60.80
73137;DHT22;62977;45.636;11.750;2023-02-05T11:42:21;8.30;61.10
73137;DHT22;62977;45.636;11.750;2023-02-05T11:44:53;8.20;61.40
73137;DHT22;62977;45.636;11.750;2023-02-05T11:47:26;8.10;61.00
73137;DHT22;62977;45.636;11.750;2023-02-05T11:49:53;8.20;60.60
73137;DHT22;62977;45.636;11.750;2023-02-05T11:59:00;8.20;60.30
73137;DHT22;62977;45.636;11.750;2023-02-05T12:01:30;8.10;60.30
73137;DHT22;62977;45.636;11.750;2023-02-05T12:04:01;7.90;60.50
73137;DHT22;62977;45.636;11.750;2023-02-05T12:06:35;8.00;60.30
73137;DHT22;62977;45.636;11.750;2023-02-05T12:21:52;8.00;60.70
73137;DHT22;62977;45.636;11.750;2023-02-05T12:39:51;8.10;61.70
73137;DHT22;62977;45.636;11.750;2023-02-05T12:56:18;8.00;61.60
73137;DHT22;62977;45.636;11.750;2023-02-05T12:58:56;8.00;61.50
73137;DHT22;62977;45.636;11.750;2023-02-05T13:16:19;7.70;70.20
73137;DHT22;62977;45.636;11.750;2023-02-05T13:21:59;7.70;70.20
73137;DHT22;62977;45.636;11.750;2023-02-05T13:24:57;7.80;63.30
73137;DHT22;62977;45.636;11.750;2023-02-05T13:31:35;7.60;70.10
73137;DHT22;62977;45.636;11.750;2023-02-05T13:34:07;7.80;62.60
73137;DHT22;62977;45.636;11.750;2023-02-05T13:37:07;7.70;63.00
73137;DHT22;62977;45.636;11.750;2023-02-05T13:56:26;7.60;70.40
73137;DHT22;62977;45.636;11.750;2023-02-05T14:22:07;7.60;71.00
73137;DHT22;62977;45.636;11.750;2023-02-05T14:24:52;7.70;70.80
73137;DHT22;62977;45.636;11.750;2023-02-05T14:36:46;7.70;70.70
73137;DHT22;62977;45.636;11.750;2023-02-05T14:39:24;7.80;70.60
73137;DHT22;62977;45.636;11.750;2023-02-05T14:48:41;7.80;71.00
73137;DHT22;62977;45.636;11.750;2023-02-05T14:51:23;7.90;70.80
73137;DHT22;62977;45.636;11.750;2023-02-05T14:54:44;7.90;70.90
73137;DHT22;62977;45.636;11.750;2023-02-05T15:15:31;7.80;71.80
73137;DHT22;62977;45.636;11.750;2023-02-05T15:18:19;7.70;71.80
73137;DHT22;62977;45.636;11.750;2023-02-05T15:27:42;7.70;71.90
73137;DHT22;62977;45.636;11.750;2023-02-05T15:30:42;7.70;72.00
73137;DHT22;62977;45.636;11.750;2023-02-05T15:39:58;7.70;71.90
73137;DHT22;62977;45.636;11.750;2023-02-05T15:42:46;7.60;72.20
73137;DHT22;62977;45.636;11.750;2023-02-05T15:45:32;7.70;72.20
73137;DHT22;62977;45.636;11.750;2023-02-05T15:48:02;7.70;72.20
73137;DHT22;62977;45.636;11.750;2023-02-05T15:57:22;7.70;72.20
73137;DHT22;62977;45.636;11.750;2023-02-05T16:03:32;7.50;72.50
73137;DHT22;62977;45.636;11.750;2023-02-05T16:09:18;7.60;72.60
73137;DHT22;62977;45.636;11.750;2023-02-05T16:14:29;7.40;72.70
73137;DHT22;62977;45.636;11.750;2023-02-05T16:17:15;7.40;72.50
73137;DHT22;62977;45.636;11.750;2023-02-05T16:22:37;7.40;72.80
73137;DHT22;62977;45.636;11.750;2023-02-05T16:27:48;7.40;72.70
73137;DHT22;62977;45.636;11.750;2023-02-05T16:30:19;7.40;72.70
73137;DHT22;62977;45.636;11.750;2023-02-05T16:32:51;7.50;72.60
73137;DHT22;62977;45.636;11.750;2023-02-05T16:35:28;7.40;72.80
73137;DHT22;62977;45.636;11.750;2023-02-05T16:37:56;7.40;73.00
73137;DHT22;62977;45.636;11.750;2023-02-05T16:40:32;7.30;72.90
73137;DHT22;62977;45.636;11.750;2023-02-05T16:43:27;7.20;73.10
73137;DHT22;62977;45.636;11.750;2023-02-05T16:46:23;7.40;73.10
73137;DHT22;62977;45.636;11.750;2023-02-05T16:48:55;7.40;73.10
73137;DHT22;62977;45.636;11.750;2023-02-05T16:54:09;7.40;72.90
73137;DHT22;62977;45.636;11.750;2023-02-05T16:56:54;7.40;72.80
73137;DHT22;62977;45.636;11.750;2023-02-05T16:59:22;7.40;72.70
73137;DHT22;62977;45.636;11.750;2023-02-05T17:01:49;7.40;72.80
73137;DHT22;62977;45.636;11.750;2023-02-05T17:04:27;7.40;72.90
73137;DHT22;62977;45.636;11.750;2023-02-05T17:06:55;7.20;73.20
73137;DHT22;62977;45.636;11.750;2023-02-05T17:09:40;7.20;73.30
73137;DHT22;62977;45.636;11.750;2023-02-05T17:14:57;7.30;73.20
73137;DHT22;62977;45.636;11.750;2023-02-05T17:17:25;7.30;73.30
73137;DHT22;62977;45.636;11.750;2023-02-05T17:20:21;7.30;73.50
73137;DHT22;62977;45.636;11.750;2023-02-05T17:25:34;7.30;73.50
73137;DHT22;62977;45.636;11.750;2023-02-05T17:28:05;7.20;73.60
73137;DHT22;62977;45.636;11.750;2023-02-05T17:30:32;7.20;73.30
73137;DHT22;62977;45.636;11.750;2023-02-05T17:32:58;7.30;73.20
73137;DHT22;62977;45.636;11.750;2023-02-05T17:35:23;7.30;73.20
73137;DHT22;62977;45.636;11.750;2023-02-05T17:37:51;7.30;73.10
73137;DHT22;62977;45.636;11.750;2023-02-05T17:40:17;7.30;73.10
73137;DHT22;62977;45.636;11.750;2023-02-05T17:42:44;7.30;73.30
73137;DHT22;62977;45.636;11.750;2023-02-05T17:45:12;7.30;73.20
73137;DHT22;62977;45.636;11.750;2023-02-05T17:47:40;7.40;73.00
73137;DHT22;62977;45.636;11.750;2023-02-05T17:50:07;7.40;73.20
73137;DHT22;62977;45.636;11.750;2023-02-05T17:52:33;7.20;73.10
73137;DHT22;62977;45.636;11.750;2023-02-05T17:54:58;7.30;73.10
73137;DHT22;62977;45.636;11.750;2023-02-05T17:57:24;7.30;73.20
73137;DHT22;62977;45.636;11.750;2023-02-05T17:59:50;7.30;73.20
73137;DHT22;62977;45.636;11.750;2023-02-05T18:02:16;7.20;73.10
73137;DHT22;62977;45.636;11.750;2023-02-05T18:04:42;7.30;73.10
73137;DHT22;62977;45.636;11.750;2023-02-05T18:07:30;7.20;73.30
73137;DHT22;62977;45.636;11.750;2023-02-05T18:09:57;7.20;73.40
73137;DHT22;62977;45.636;11.750;2023-02-05T18:12:26;7.10;73.50
73137;DHT22;62977;45.636;11.750;2023-02-05T18:14:53;7.30;73.60
73137;DHT22;62977;45.636;11.750;2023-02-05T18:17:19;7.20;73.40
73137;DHT22;62977;45.636;11.750;2023-02-05T18:19:44;7.20;73.60
73137;DHT22;62977;45.636;11.750;2023-02-05T18:22:10;7.20;73.40
73137;DHT22;62977;45.636;11.750;2023-02-05T18:24:36;7.10;73.70
73137;DHT22;62977;45.636;11.750;2023-02-05T18:27:04;7.30;73.90
73137;DHT22;62977;45.636;11.750;2023-02-05T18:29:33;7.30;73.90
73137;DHT22;62977;45.636;11.750;2023-02-05T18:31:59;7.20;73.90
73137;DHT22;62977;45.636;11.750;2023-02-05T18:34:24;7.30;74.00
73137;DHT22;62977;45.636;11.750;2023-02-05T18:36:51;7.20;73.80
73137;DHT22;62977;45.636;11.750;2023-02-05T18:39:16;7.20;73.70
73137;DHT22;62977;45.636;11.750;2023-02-05T18:41:42;7.20;73.70
73137;DHT22;62977;45.636;11.750;2023-02-05T18:44:08;7.30;73.80
73137;DHT22;62977;45.636;11.750;2023-02-05T18:46:34;7.30;73.90
73137;DHT22;62977;45.636;11.750;2023-02-05T18:49:00;7.20;73.80
73137;DHT22;62977;45.636;11.750;2023-02-05T18:51:26;7.10;73.70
73137;DHT22;62977;45.636;11.750;2023-02-05T18:53:52;7.20;73.60
73137;DHT22;62977;45.636;11.750;2023-02-05T18:56:26;7.30;74.00
73137;DHT22;62977;45.636;11.750;2023-02-05T18:58:56;7.10;74.00
73137;DHT22;62977;45.636;11.750;2023-02-05T19:01:25;7.10;74.10
73137;DHT22;62977;45.636;11.750;2023-02-05T19:03:53;7.00;74.30
73137;DHT22;62977;45.636;11.750;2023-02-05T19:06:20;7.10;74.50
73137;DHT22;62977;45.636;11.750;2023-02-05T19:08:46;7.00;74.60
73137;DHT22;62977;45.636;11.750;2023-02-05T19:11:15;7.00;74.40
73137;DHT22;62977;45.636;11.750;2023-02-05T19:13:41;7.10;74.50
73137;DHT22;62977;45.636;11.750;2023-02-05T19:16:10;6.90;74.80
73137;DHT22;62977;45.636;11.750;2023-02-05T19:18:42;6.90;74.90
73137;DHT22;62977;45.636;11.750;2023-02-05T19:21:10;6.90;74.90
73137;DHT22;62977;45.636;11.750;2023-02-05T19:23:36;6.90;74.90
73137;DHT22;62977;45.636;11.750;2023-02-05T19:26:04;6.90;74.90
73137;DHT22;62977;45.636;11.750;2023-02-05T19:28:30;6.90;75.00
73137;DHT22;62977;45.636;11.750;2023-02-05T19:30:56;7.00;75.00
73137;DHT22;62977;45.636;11.750;2023-02-05T19:33:21;6.90;75.10
73137;DHT22;62977;45.636;11.750;2023-02-05T19:35:47;6.90;75.40
73137;DHT22;62977;45.636;11.750;2023-02-05T19:38:13;6.90;75.30
73137;DHT22;62977;45.636;11.750;2023-02-05T19:40:39;6.70;75.50
73137;DHT22;62977;45.636;11.750;2023-02-05T19:43:05;6.70;75.70
73137;DHT22;62977;45.636;11.750;2023-02-05T19:45:35;6.60;76.00
73137;DHT22;62977;45.636;11.750;2023-02-05T19:48:01;6.80;75.90
73137;DHT22;62977;45.636;11.750;2023-02-05T19:50:27;6.70;76.00
73137;DHT22;62977;45.636;11.750;2023-02-05T19:52:53;6.60;76.30
73137;DHT22;62977;45.636;11.750;2023-02-05T19:55:19;6.50;76.50
73137;DHT22;62977;45.636;11.750;2023-02-05T19:57:44;6.50;76.60
73137;DHT22;62977;45.636;11.750;2023-02-05T20:00:10;6.50;76.70
73137;DHT22;62977;45.636;11.750;2023-02-05T20:02:36;6.60;76.80
73137;DHT22;62977;45.636;11.750;2023-02-05T20:05:03;6.30;77.10
73137;DHT22;62977;45.636;11.750;2023-02-05T20:07:29;6.30;77.30
73137;DHT22;62977;45.636;11.750;2023-02-05T20:09:57;6.30;77.30
73137;DHT22;62977;45.636;11.750;2023-02-05T20:12:23;6.50;77.40
73137;DHT22;62977;45.636;11.750;2023-02-05T20:14:49;6.40;77.40
73137;DHT22;62977;45.636;11.750;2023-02-05T20:17:14;6.40;77.40
73137;DHT22;62977;45.636;11.750;2023-02-05T20:19:42;6.40;77.30